Time;durP1;ratioP1;P1;durP2;ratioP2;P2;SDS_P1;SDS_P2;PMS_P1;PMS_P2;Temp;Humidity;BMP_temperature;BMP_pressure;BME280_temperature;BME280_humidity;BME280_pressure;Samples;Min_cycle;Max_cycle;Signal;HPM_P1;HPM_P2
2023/08/21 00:00:07;;;;;;;3.08;1.65;;;14.90;99.90;;;;;;4991670;28;20441;-91
2023/08/21 00:02:32;;;;;;;3.50;1.53;;;14.40;99.90;;;;;;4993750;28;20407;-92
2023/08/21 00:04:58;;;;;;;5.93;2.33;;;14.70;99.90;;;;;;4992265;28;20410;-91
2023/08/21 00:07:23;;;;;;;4.63;2.22;;;14.60;99.90;;;;;;4993924;28;20734;-91
2023/08/21 00:09:50;;;;;;;4.67;2.03;;;14.30;99.90;;;;;;4993328;28;20418;-92
2023/08/21 00:12:16;;;;;;;3.70;1.77;;;14.00;99.90;;;;;;4992557;28;20451;-91
2023/08/21 00:14:41;;;;;;;5.47;2.83;;;14.20;99.90;;;;;;4993838;28;20416;-91
2023/08/21 00:17:07;;;;;;;5.07;2.28;;;14.50;99.90;;;;;;4991937;28;20448;-91
2023/08/21 00:19:34;;;;;;;5.80;2.63;;;14.50;99.90;;;;;;4993845;28;20399;-91
2023/08/21 00:22:00;;;;;;;5.88;3.05;;;13.90;99.90;;;;;;4991897;28;20400;-91
2023/08/21 00:24:26;;;;;;;5.17;2.80;;;14.60;99.90;;;;;;4993863;28;20411;-93
2023/08/21 00:26:51;;;;;;;5.43;2.30;;;14.30;99.90;;;;;;4991928;28;20414;-92
2023/08/21 00:29:17;;;;;;;6.10;2.90;;;14.10;99.90;;;;;;4993422;28;20439;-91
2023/08/21 00:31:43;;;;;;;7.43;2.50;;;14.50;99.90;;;;;;4993679;28;20409;-92
2023/08/21 00:34:08;;;;;;;5.60;2.33;;;14.10;99.90;;;;;;4992147;28;20418;-92
2023/08/21 00:36:34;;;;;;;5.35;2.88;;;14.50;99.90;;;;;;4993757;28;20435;-92
2023/08/21 00:38:59;;;;;;;5.50;2.33;;;14.10;99.90;;;;;;4991683;28;20426;-92
2023/08/21 00:41:25;;;;;;;4.90;2.22;;;14.30;99.90;;;;;;4993347;28;20826;-92
2023/08/21 00:43:51;;;;;;;7.10;2.47;;;14.10;99.90;;;;;;4992132;28;20469;-91
2023/08/21 00:46:17;;;;;;;5.60;2.22;;;13.90;99.90;;;;;;4993543;28;20406;-91
2023/08/21 00:48:44;;;;;;;4.53;1.80;;;14.00;99.90;;;;;;4992692;28;20415;-92
2023/08/21 00:51:11;;;;;;;3.38;1.65;;;14.10;99.90;;;;;;4992680;28;20442;-92
2023/08/21 00:53:38;;;;;;;4.63;2.60;;;14.10;99.90;;;;;;4993538;28;20396;-90
2023/08/21 00:56:04;;;;;;;6.03;2.05;;;13.90;99.90;;;;;;4991345;28;20466;-94
2023/08/21 00:58:30;;;;;;;3.33;1.63;;;13.90;99.90;;;;;;4993618;28;20403;-91
2023/08/21 01:00:55;;;;;;;5.70;2.13;;;14.10;99.90;;;;;;4991251;28;20526;-91
2023/08/21 01:03:21;;;;;;;6.33;2.50;;;13.70;99.90;;;;;;4993305;28;20442;-93
2023/08/21 01:05:47;;;;;;;5.85;2.60;;;14.20;99.90;;;;;;4992282;28;20461;-92
2023/08/21 01:08:30;;;;;;;6.40;3.30;;;14.00;99.90;;;;;;4994668;28;20407;-92
2023/08/21 01:11:16;;;;;;;4.67;2.50;;;13.80;99.90;;;;;;4996978;28;20427;-91
2023/08/21 01:14:10;;;;;;;5.63;3.42;;;13.80;99.90;;;;;;4995016;28;20911;-93
2023/08/21 01:16:37;;;;;;;4.70;2.63;;;13.70;99.90;;;;;;4996490;28;20443;-93
2023/08/21 01:19:09;;;;;;;4.20;2.85;;;13.70;99.90;;;;;;4996106;28;20400;-92
2023/08/21 01:21:34;;;;;;;3.60;2.00;;;14.00;99.90;;;;;;4994853;28;20426;-92
2023/08/21 01:24:00;;;;;;;2.75;1.73;;;13.60;99.90;;;;;;4996765;28;20405;-92
2023/08/21 01:26:26;;;;;;;4.67;2.90;;;13.80;99.90;;;;;;4994473;28;20506;-92
2023/08/21 01:28:51;;;;;;;2.83;2.10;;;13.50;99.90;;;;;;4996770;28;20782;-91
2023/08/21 01:31:36;;;;;;;4.50;2.47;;;14.10;99.90;;;;;;4995098;28;20493;-91
2023/08/21 01:34:06;;;;;;;3.50;2.15;;;13.60;99.90;;;;;;4995938;28;20470;-91
2023/08/21 01:36:33;;;;;;;4.00;2.45;;;13.80;99.90;;;;;;4996408;28;20948;-91
2023/08/21 01:38:59;;;;;;;4.65;2.78;;;13.50;99.90;;;;;;4994347;28;20415;-91
2023/08/21 01:41:25;;;;;;;4.72;2.30;;;13.50;99.90;;;;;;4996360;28;20911;-91
2023/08/21 01:43:51;;;;;;;4.90;2.45;;;13.50;99.90;;;;;;4994096;28;20494;-92
2023/08/21 01:46:17;;;;;;;2.97;1.73;;;13.50;99.90;;;;;;4996268;28;20476;-91
2023/08/21 01:48:43;;;;;;;3.42;2.00;;;13.50;99.90;;;;;;4994683;28;20507;-92
2023/08/21 01:51:08;;;;;;;5.47;3.00;;;13.60;99.90;;;;;;4995695;28;20766;-93
2023/08/21 01:53:34;;;;;;;4.68;3.00;;;13.50;99.90;;;;;;4995778;28;20426;-91
2023/08/21 01:56:00;;;;;;;3.90;2.83;;;13.80;99.90;;;;;;4994499;28;20492;-92
2023/08/21 01:58:25;;;;;;;5.20;3.63;;;13.80;99.90;;;;;;4995873;28;20400;-91
2023/08/21 02:00:51;;;;;;;3.50;2.58;;;13.70;99.90;;;;;;4993619;28;20510;-93
2023/08/21 02:03:17;;;;;;;3.60;2.00;;;13.60;99.90;;;;;;4996752;28;20530;-94
2023/08/21 02:05:42;;;;;;;3.53;1.85;;;13.70;99.90;;;;;;4994197;28;20928;-92
2023/08/21 02:08:14;;;;;;;4.35;2.35;;;13.50;99.90;;;;;;4996007;28;20411;-94
2023/08/21 02:10:58;;;;;;;3.08;2.10;;;13.60;99.90;;;;;;4994984;28;20457;-93
2023/08/21 02:13:23;;;;;;;2.92;1.90;;;13.40;99.90;;;;;;4994471;28;20450;-93
2023/08/21 02:15:49;;;;;;;13.02;4.15;;;13.40;99.90;;;;;;4996345;28;20442;-94
2023/08/21 02:18:15;;;;;;;21.40;4.50;;;13.70;99.90;;;;;;4993524;28;20909;-92
2023/08/21 02:20:41;;;;;;;32.28;4.30;;;13.30;99.90;;;;;;4995683;28;20439;-93
2023/08/21 02:23:06;;;;;;;8.38;3.42;;;13.30;99.90;;;;;;4993355;28;20407;-92
2023/08/21 02:25:32;;;;;;;4.70;2.97;;;13.50;99.90;;;;;;4995329;28;20445;-92
2023/08/21 02:27:58;;;;;;;7.37;4.23;;;13.20;99.90;;;;;;4994662;28;20422;-91
2023/08/21 02:30:25;;;;;;;6.50;3.80;;;13.20;99.90;;;;;;4994629;28;20398;-91
2023/08/21 02:32:54;;;;;;;7.07;3.90;;;13.50;99.90;;;;;;4995099;28;20417;-92
2023/08/21 02:35:20;;;;;;;8.65;5.18;;;13.20;99.90;;;;;;4993705;28;20422;-92
2023/08/21 02:37:46;;;;;;;6.60;3.93;;;13.80;99.90;;;;;;4995279;28;20410;-92
2023/08/21 02:40:12;;;;;;;4.77;3.30;;;13.40;99.90;;;;;;4993289;28;20434;-92
2023/08/21 02:42:38;;;;;;;6.87;2.90;;;13.30;99.90;;;;;;4994710;28;20415;-93
2023/08/21 02:45:08;;;;;;;9.07;3.53;;;13.20;99.90;;;;;;4992739;28;20404;-92
2023/08/21 02:47:43;;;;;;;7.15;3.85;;;13.00;99.90;;;;;;4993399;28;20473;-93
2023/08/21 02:50:09;;;;;;;8.10;4.55;;;13.10;99.90;;;;;;4994648;28;20411;-92
2023/08/21 02:52:36;;;;;;;8.90;4.63;;;12.90;99.90;;;;;;4991908;28;20430;-91
2023/08/21 02:55:03;;;;;;;9.60;5.03;;;13.30;99.90;;;;;;4994366;28;20407;-92
2023/08/21 02:57:29;;;;;;;10.10;6.10;;;13.10;99.90;;;;;;4992225;28;20407;-92
2023/08/21 02:59:55;;;;;;;53.50;8.15;;;13.30;99.90;;;;;;4995061;28;20423;-91
2023/08/21 03:02:21;;;;;;;10.05;5.22;;;13.10;99.90;;;;;;4993450;28;20460;-91
2023/08/21 03:04:47;;;;;;;28.63;6.72;;;13.10;99.90;;;;;;4995150;28;20762;-92
2023/08/21 03:07:13;;;;;;;9.60;5.75;;;13.10;99.90;;;;;;4994434;28;20390;-92
2023/08/21 03:09:40;;;;;;;8.20;5.20;;;13.40;99.90;;;;;;4993093;28;20403;-92
2023/08/21 03:12:07;;;;;;;9.48;6.28;;;13.30;99.90;;;;;;4994441;28;20730;-92
2023/08/21 03:14:32;;;;;;;17.57;7.60;;;13.10;99.90;;;;;;4992717;28;20778;-93
2023/08/21 03:16:58;;;;;;;9.17;5.33;;;13.20;99.90;;;;;;4994552;28;20404;-93
2023/08/21 03:19:24;;;;;;;10.80;5.50;;;13.50;99.90;;;;;;4993170;28;20459;-93
2023/08/21 03:21:50;;;;;;;6.13;4.73;;;13.30;99.90;;;;;;4994381;28;20466;-93
2023/08/21 03:24:15;;;;;;;9.20;5.00;;;13.90;99.90;;;;;;4993570;28;20407;-92
2023/08/21 03:26:41;;;;;;;9.27;5.97;;;13.10;99.90;;;;;;4992962;28;20429;-93
2023/08/21 03:29:07;;;;;;;9.60;5.77;;;13.80;99.90;;;;;;4994550;28;20465;-92
2023/08/21 03:31:32;;;;;;;10.20;6.77;;;12.90;99.90;;;;;;4991804;28;20435;-92
2023/08/21 03:33:58;;;;;;;7.57;5.85;;;13.30;99.90;;;;;;4994292;28;20495;-92
2023/08/21 03:36:33;;;;;;;14.90;8.43;;;13.30;99.90;;;;;;4991898;28;20422;-91
2023/08/21 03:38:59;;;;;;;7.30;5.37;;;13.40;99.90;;;;;;4993857;28;21003;-91
2023/08/21 03:41:25;;;;;;;10.43;8.07;;;13.20;99.90;;;;;;4993376;28;20466;-92
2023/08/21 03:43:51;;;;;;;6.63;5.00;;;13.00;99.90;;;;;;4993030;28;20403;-91
2023/08/21 03:46:17;;;;;;;6.60;5.20;;;13.00;99.90;;;;;;4993891;28;21071;-91
2023/08/21 03:48:42;;;;;;;11.33;8.27;;;13.10;99.90;;;;;;4992009;28;20502;-92
2023/08/21 03:51:08;;;;;;;8.13;6.00;;;13.50;99.90;;;;;;4994880;28;20400;-91
2023/08/21 03:53:34;;;;;;;6.00;5.00;;;13.10;99.90;;;;;;4982179;28;20405;-91
2023/08/21 03:56:00;;;;;;;5.93;5.23;;;13.10;99.90;;;;;;4974856;28;20421;-92
2023/08/21 03:58:26;;;;;;;7.32;5.45;;;13.10;99.90;;;;;;4973136;28;20408;-92
2023/08/21 04:00:53;;;;;;;8.70;5.63;;;13.00;99.90;;;;;;4973759;28;20429;-91
2023/08/21 04:03:19;;;;;;;7.68;5.10;;;13.40;99.90;;;;;;4974367;28;20412;-92
2023/08/21 04:05:45;;;;;;;6.25;5.10;;;13.10;99.90;;;;;;4972643;28;20463;-93
2023/08/21 04:08:10;;;;;;;6.97;5.78;;;13.30;99.90;;;;;;4974382;28;20424;-92
2023/08/21 04:10:38;;;;;;;8.60;7.13;;;13.00;99.90;;;;;;4971952;28;20417;-92
2023/08/21 04:13:05;;;;;;;9.73;7.43;;;13.00;99.90;;;;;;4974591;28;20405;-91
2023/08/21 04:15:32;;;;;;;10.38;6.18;;;13.00;99.90;;;;;;4972541;28;20447;-91
2023/08/21 04:17:57;;;;;;;10.60;8.10;;;13.00;99.90;;;;;;4974226;28;20401;-92
2023/08/21 04:20:23;;;;;;;10.45;6.93;;;13.00;99.90;;;;;;4973871;28;20430;-90
2023/08/21 04:22:49;;;;;;;19.67;7.77;;;13.20;99.90;;;;;;4972757;28;20413;-91
2023/08/21 04:25:15;;;;;;;5.33;4.83;;;12.70;99.90;;;;;;4974405;28;20402;-92
2023/08/21 04:27:42;;;;;;;7.57;6.78;;;13.00;99.90;;;;;;4972076;28;20436;-93
2023/08/21 04:30:08;;;;;;;7.57;5.80;;;13.40;99.90;;;;;;4974206;28;20405;-91
2023/08/21 04:32:34;;;;;;;5.70;5.13;;;13.00;99.90;;;;;;4972335;28;20532;-91
2023/08/21 04:35:00;;;;;;;5.50;4.93;;;13.10;99.90;;;;;;4974412;28;20492;-92
2023/08/21 04:37:26;;;;;;;6.03;5.25;;;13.00;99.90;;;;;;4973182;28;20425;-92
2023/08/21 04:39:55;;;;;;;85.55;8.68;;;12.90;99.90;;;;;;4973364;28;20499;-92
2023/08/21 04:42:21;;;;;;;3.55;2.88;;;13.00;99.90;;;;;;4974538;28;20911;-92
2023/08/21 04:44:47;;;;;;;3.85;2.30;;;12.90;99.90;;;;;;4975533;28;20458;-91
2023/08/21 04:47:21;;;;;;;4.50;2.97;;;12.90;99.90;;;;;;4977828;28;20485;-92
2023/08/21 04:49:51;;;;;;;4.15;3.03;;;12.90;99.90;;;;;;4975028;28;20449;-93
2023/08/21 04:52:17;;;;;;;4.20;3.80;;;12.90;99.90;;;;;;4976798;28;20412;-93
2023/08/21 04:54:43;;;;;;;5.10;3.83;;;13.20;99.90;;;;;;4976195;28;20854;-90
2023/08/21 04:57:08;;;;;;;6.47;4.43;;;13.20;99.90;;;;;;4976848;28;20405;-93
2023/08/21 04:59:36;;;;;;;6.40;4.67;;;13.00;99.90;;;;;;4981577;28;20420;-93
2023/08/21 05:02:02;;;;;;;5.17;4.47;;;13.00;99.90;;;;;;4995020;28;20457;-93
2023/08/21 05:04:27;;;;;;;6.73;4.53;;;13.10;99.90;;;;;;4996384;28;20812;-91
2023/08/21 05:06:53;;;;;;;4.80;4.40;;;13.30;99.90;;;;;;4995059;28;20498;-91
2023/08/21 05:09:19;;;;;;;6.60;5.00;;;13.10;99.90;;;;;;4996638;28;20403;-93
2023/08/21 05:11:44;;;;;;;5.37;4.87;;;13.10;99.90;;;;;;4995247;28;20510;-92
2023/08/21 05:14:10;;;;;;;3.87;3.37;;;13.60;99.90;;;;;;4996640;28;20832;-90
2023/08/21 05:16:36;;;;;;;4.55;3.63;;;13.40;99.90;;;;;;4996561;28;20419;-92
2023/08/21 05:19:01;;;;;;;5.23;4.30;;;13.50;99.90;;;;;;4995487;28;20423;-92
2023/08/21 05:21:27;;;;;;;3.20;2.20;;;13.60;99.90;;;;;;4996491;28;20419;-93
2023/08/21 05:23:53;;;;;;;4.22;3.10;;;13.90;99.90;;;;;;4995077;28;20419;-92
2023/08/21 05:26:19;;;;;;;3.17;2.75;;;13.80;99.90;;;;;;4997038;28;20790;-93
2023/08/21 05:28:45;;;;;;;3.83;2.92;;;13.90;99.90;;;;;;4995200;28;20415;-91
2023/08/21 05:31:11;;;;;;;3.00;2.42;;;14.10;99.90;;;;;;4996520;28;21020;-91
2023/08/21 05:33:37;;;;;;;5.63;3.60;;;14.30;99.90;;;;;;4995849;28;20456;-91
2023/08/21 05:36:03;;;;;;;5.00;4.50;;;14.70;99.90;;;;;;4993923;28;20786;-92
2023/08/21 05:38:28;;;;;;;8.57;5.47;;;14.40;99.90;;;;;;4996673;28;20497;-93
2023/08/21 05:40:54;;;;;;;9.45;4.68;;;15.00;99.90;;;;;;4994617;28;20427;-92
2023/08/21 05:43:20;;;;;;;5.95;5.00;;;14.80;99.90;;;;;;4995784;28;20782;-91
2023/08/21 05:45:45;;;;;;;6.80;5.07;;;14.80;99.90;;;;;;4994353;28;20774;-91
2023/08/21 05:48:11;;;;;;;7.03;5.13;;;15.10;99.90;;;;;;4996496;28;20927;-92
2023/08/21 05:50:37;;;;;;;6.63;4.87;;;15.50;99.90;;;;;;4994767;28;20411;-91
2023/08/21 05:53:06;;;;;;;8.37;6.47;;;15.50;99.90;;;;;;4995484;28;20892;-91
2023/08/21 05:55:32;;;;;;;8.20;5.53;;;15.30;99.90;;;;;;4995704;28;20469;-90
2023/08/21 05:57:58;;;;;;;10.47;6.40;;;15.80;99.90;;;;;;4994461;28;20415;-93
2023/08/21 06:00:24;;;;;;;12.13;8.53;;;15.90;99.90;;;;;;4982443;28;20437;-91
2023/08/21 06:02:49;;;;;;;11.75;7.28;;;15.80;99.90;;;;;;4973784;28;20903;-91
2023/08/21 06:05:15;;;;;;;10.52;7.13;;;15.90;99.90;;;;;;4976749;28;20428;-92
2023/08/21 06:07:41;;;;;;;11.33;6.83;;;16.10;99.90;;;;;;4974529;28;20460;-90
2023/08/21 06:10:08;;;;;;;9.93;6.63;;;16.30;99.90;;;;;;4982282;28;20478;-89
2023/08/21 06:12:34;;;;;;;12.18;6.85;;;16.50;99.90;;;;;;4994920;28;20439;-90
2023/08/21 06:14:59;;;;;;;9.68;5.30;;;16.60;99.90;;;;;;4994958;28;20477;-90
2023/08/21 06:17:27;;;;;;;10.10;5.80;;;16.80;99.90;;;;;;4995822;28;20443;-90
2023/08/21 06:19:53;;;;;;;11.98;5.50;;;16.90;99.90;;;;;;4993499;28;20408;-91
2023/08/21 06:22:19;;;;;;;11.32;5.50;;;17.00;99.90;;;;;;4995485;28;20474;-91
2023/08/21 06:24:44;;;;;;;8.80;4.63;;;17.50;99.90;;;;;;4993757;28;20419;-91
2023/08/21 06:27:10;;;;;;;8.15;5.20;;;17.40;99.90;;;;;;4995698;28;20403;-91
2023/08/21 06:29:37;;;;;;;9.50;5.13;;;17.40;99.90;;;;;;4994590;28;20414;-91
2023/08/21 06:32:03;;;;;;;7.75;4.28;;;17.60;99.90;;;;;;4994894;28;20411;-92
2023/08/21 06:34:29;;;;;;;9.40;4.67;;;17.70;99.90;;;;;;4995100;28;20403;-92
2023/08/21 06:36:54;;;;;;;8.70;4.20;;;17.80;99.90;;;;;;4993359;28;20419;-91
2023/08/21 06:39:20;;;;;;;7.28;4.00;;;18.00;99.90;;;;;;4996548;28;20399;-91
2023/08/21 06:41:46;;;;;;;9.70;4.50;;;18.10;99.90;;;;;;4993127;28;20457;-92
2023/08/21 06:44:11;;;;;;;8.82;4.22;;;18.50;99.90;;;;;;4995370;28;20427;-93
2023/08/21 06:46:37;;;;;;;9.03;4.37;;;18.80;99.90;;;;;;4993316;28;20407;-92
2023/08/21 06:49:03;;;;;;;7.97;4.13;;;18.90;99.90;;;;;;4994846;28;20500;-93
2023/08/21 06:51:29;;;;;;;7.50;4.43;;;18.70;99.90;;;;;;4994560;28;20419;-92
2023/08/21 06:53:55;;;;;;;7.82;3.90;;;18.90;99.90;;;;;;4993196;28;20992;-92
2023/08/21 06:56:20;;;;;;;8.17;3.90;;;18.70;99.90;;;;;;4995166;28;20422;-94
2023/08/21 06:58:46;;;;;;;9.38;3.92;;;19.10;99.90;;;;;;4993202;28;20418;-94
2023/08/21 07:01:12;;;;;;;6.53;2.80;;;19.30;99.90;;;;;;4995044;28;20423;-92
2023/08/21 07:03:37;;;;;;;8.75;2.95;;;19.40;99.90;;;;;;4992969;28;20419;-92
2023/08/21 07:06:03;;;;;;;8.38;3.05;;;19.70;99.90;;;;;;4994273;28;20499;-93
2023/08/21 07:08:29;;;;;;;7.93;2.60;;;19.80;99.90;;;;;;4993950;28;20921;-93
2023/08/21 07:10:54;;;;;;;7.25;3.08;;;20.30;99.90;;;;;;4993971;28;20482;-93
2023/08/21 07:13:20;;;;;;;6.67;2.77;;;19.90;99.90;;;;;;4994320;28;20403;-93
2023/08/21 07:15:47;;;;;;;6.13;2.30;;;20.00;99.90;;;;;;4992918;28;20411;-94
2023/08/21 07:18:13;;;;;;;6.97;2.22;;;20.20;99.90;;;;;;4995182;28;20453;-92
2023/08/21 07:20:39;;;;;;;6.00;2.35;;;20.20;99.90;;;;;;4992432;28;20518;-92
2023/08/21 07:23:06;;;;;;;6.03;2.20;;;20.30;99.90;;;;;;4994428;28;20451;-92
2023/08/21 07:25:31;;;;;;;5.85;2.70;;;20.40;99.90;;;;;;4992651;28;20477;-91
2023/08/21 07:27:58;;;;;;;7.73;2.90;;;20.50;99.90;;;;;;4994448;28;20902;-93
2023/08/21 07:30:24;;;;;;;4.82;2.10;;;20.60;99.90;;;;;;4994038;28;21040;-93
2023/08/21 07:32:49;;;;;;;5.65;2.17;;;20.70;99.90;;;;;;4993626;28;20498;-93
2023/08/21 07:35:16;;;;;;;5.73;2.03;;;20.80;99.90;;;;;;4996195;28;20423;-92
2023/08/21 07:37:45;;;;;;;6.80;2.13;;;20.90;99.90;;;;;;4992217;28;20425;-93
2023/08/21 07:40:11;;;;;;;6.03;1.55;;;21.40;99.90;;;;;;4994364;28;20462;-93
2023/08/21 07:42:37;;;;;;;7.30;1.20;;;21.20;99.90;;;;;;4991870;28;20419;-93
2023/08/21 07:45:03;;;;;;;5.70;1.60;;;21.20;99.90;;;;;;4994628;28;20486;-93
2023/08/21 07:47:29;;;;;;;4.80;1.40;;;21.20;99.90;;;;;;4992383;28;20810;-92
2023/08/21 07:49:56;;;;;;;7.97;1.90;;;21.30;99.90;;;;;;4983321;28;20413;-92
2023/08/21 07:52:22;;;;;;;5.57;1.88;;;21.40;99.90;;;;;;4974681;28;20434;-93
2023/08/21 07:54:54;;;;;;;8.47;5.33;;;21.60;99.90;;;;;;4972644;28;20400;-93
2023/08/21 07:57:20;;;;;;;9.80;5.72;;;21.60;99.90;;;;;;4974490;28;20421;-92
2023/08/21 07:59:46;;;;;;;7.57;2.53;;;21.70;99.90;;;;;;4972195;28;20417;-93
2023/08/21 08:02:12;;;;;;;6.63;2.08;;;21.70;99.90;;;;;;4974706;28;20421;-92
2023/08/21 08:04:38;;;;;;;5.28;1.60;;;21.90;99.90;;;;;;4972693;28;20405;-93
2023/08/21 08:07:04;;;;;;;6.97;1.70;;;21.90;99.90;;;;;;4974317;28;20416;-93
2023/08/21 08:09:30;;;;;;;6.57;1.98;;;22.00;99.90;;;;;;4974153;28;20903;-92
2023/08/21 08:11:56;;;;;;;5.93;1.27;;;22.10;99.90;;;;;;4968847;28;20542;-92
2023/08/21 08:14:22;;;;;;;5.17;1.10;;;22.20;99.90;;;;;;4971065;28;20470;-91
2023/08/21 08:16:47;;;;;;;5.60;1.38;;;22.30;99.90;;;;;;4970082;28;20488;-92
2023/08/21 08:19:13;;;;;;;5.93;1.10;;;22.30;99.90;;;;;;4975021;28;20402;-92
2023/08/21 08:21:39;;;;;;;5.55;0.90;;;22.30;99.90;;;;;;4972903;28;20426;-93
2023/08/21 08:24:04;;;;;;;5.70;1.10;;;22.30;99.90;;;;;;4975195;28;20414;-92
2023/08/21 08:26:30;;;;;;;5.78;0.90;;;22.40;99.90;;;;;;4974218;28;20480;-92
2023/08/21 08:28:56;;;;;;;6.40;2.22;;;22.50;99.90;;;;;;4974158;28;20429;-92
2023/08/21 08:31:23;;;;;;;5.80;1.70;;;22.50;99.90;;;;;;4974978;28;20417;-91
2023/08/21 08:33:49;;;;;;;10.67;6.23;;;22.70;99.90;;;;;;4972855;28;20541;-91
2023/08/21 08:36:14;;;;;;;12.00;7.68;;;22.70;99.90;;;;;;4975153;28;20585;-93
2023/08/21 08:38:40;;;;;;;7.17;2.10;;;22.80;99.90;;;;;;4972702;28;20410;-92
2023/08/21 08:41:11;;;;;;;6.57;1.58;;;23.20;99.90;;;;;;4974652;28;20777;-93
2023/08/21 08:43:40;;;;;;;5.85;1.52;;;22.90;99.90;;;;;;4973169;28;20410;-94
2023/08/21 08:46:08;;;;;;;13.18;8.40;;;23.40;99.90;;;;;;4974792;28;20414;-93
2023/08/21 08:48:35;;;;;;;6.25;1.50;;;23.20;99.90;;;;;;4974239;28;20489;-93
2023/08/21 08:51:03;;;;;;;8.98;2.45;;;23.30;99.90;;;;;;4973269;28;20406;-92
2023/08/21 08:53:30;;;;;;;10.63;4.95;;;22.90;99.90;;;;;;4983059;28;20413;-93
2023/08/21 08:55:57;;;;;;;8.38;3.55;;;23.20;99.90;;;;;;4980543;28;20410;-93
2023/08/21 08:58:22;;;;;;;12.32;4.95;;;23.20;99.90;;;;;;4985418;28;20437;-93
2023/08/21 09:00:48;;;;;;;5.20;1.00;;;23.30;99.90;;;;;;4985398;28;20976;-93
2023/08/21 09:03:15;;;;;;;7.17;1.30;;;23.30;99.90;;;;;;4986055;28;20499;-93
2023/08/21 09:05:41;;;;;;;6.43;1.40;;;23.60;99.90;;;;;;4980751;28;20829;-92
2023/08/21 09:08:12;;;;;;;8.53;1.90;;;23.70;99.90;;;;;;4982040;28;20506;-93
2023/08/21 09:10:39;;;;;;;6.60;1.20;;;23.60;99.90;;;;;;4990209;28;20409;-92
2023/08/21 09:13:14;;;;;;;6.78;1.20;;;23.60;99.90;;;;;;4973631;28;20407;-93
2023/08/21 09:15:42;;;;;;;6.82;2.42;;;23.80;99.90;;;;;;4974011;28;20419;-92
2023/08/21 09:18:11;;;;;;;6.27;1.90;;;23.90;99.90;;;;;;4971934;28;20411;-92
2023/08/21 09:20:37;;;;;;;6.45;1.17;;;24.10;99.90;;;;;;4972920;28;20445;-93
2023/08/21 09:23:06;;;;;;;6.38;1.23;;;24.00;99.90;;;;;;4973171;28;20449;-92
2023/08/21 09:25:37;;;;;;;7.80;1.35;;;24.20;99.90;;;;;;4981418;28;20417;-92
2023/08/21 09:28:07;;;;;;;10.25;5.47;;;24.10;99.90;;;;;;4976432;28;20411;-91
2023/08/21 09:30:54;;;;;;;7.10;1.60;;;24.50;99.90;;;;;;4971842;28;20434;-90
2023/08/21 09:33:22;;;;;;;6.97;1.88;;;24.30;99.40;;;;;;4974044;28;20422;-90
2023/08/21 09:35:50;;;;;;;7.57;3.08;;;24.40;99.90;;;;;;4972795;28;20437;-91
2023/08/21 09:38:16;;;;;;;7.72;1.10;;;24.50;99.90;;;;;;4972995;28;20402;-91
2023/08/21 09:40:43;;;;;;;6.37;1.30;;;24.60;94.00;;;;;;4973440;28;20472;-90
2023/08/21 09:43:11;;;;;;;6.80;1.27;;;24.70;92.00;;;;;;4988013;28;20444;-93
2023/08/21 09:45:37;;;;;;;10.93;4.93;;;24.80;90.90;;;;;;4973922;28;20951;-91
2023/08/21 09:48:04;;;;;;;6.53;1.23;;;24.80;95.20;;;;;;4972337;28;20761;-90
2023/08/21 09:50:30;;;;;;;6.05;1.00;;;24.90;95.00;;;;;;4978619;28;20405;-91
2023/08/21 09:52:59;;;;;;;5.23;1.23;;;25.00;95.70;;;;;;4991327;28;20405;-90
2023/08/21 09:55:29;;;;;;;6.22;1.10;;;25.20;93.60;;;;;;4991517;28;20424;-89
2023/08/21 09:57:59;;;;;;;5.90;0.90;;;25.40;85.20;;;;;;5008701;28;20397;-89
2023/08/21 10:00:37;;;;;;;5.57;0.95;;;25.90;80.10;;;;;;4990293;28;20807;-91
2023/08/21 10:03:07;;;;;;;6.93;1.50;;;25.90;83.20;;;;;;4992306;28;20416;-88
2023/08/21 10:05:38;;;;;;;5.38;1.13;;;25.90;80.60;;;;;;5006985;28;20405;-88
2023/08/21 10:08:05;;;;;;;5.33;0.80;;;26.10;80.30;;;;;;4991929;28;20467;-91
2023/08/21 10:10:33;;;;;;;4.63;0.80;;;26.30;73.70;;;;;;4991454;28;20460;-91
2023/08/21 10:12:59;;;;;;;5.65;1.10;;;26.50;73.10;;;;;;4990798;28;20428;-90
2023/08/21 10:15:27;;;;;;;6.63;1.38;;;26.70;78.60;;;;;;4992833;28;20547;-91
2023/08/21 10:17:53;;;;;;;4.43;0.57;;;27.10;69.70;;;;;;4990779;28;20527;-90
2023/08/21 10:20:24;;;;;;;6.97;3.50;;;27.00;67.50;;;;;;4993036;28;20432;-91
2023/08/21 10:22:54;;;;;;;4.15;1.10;;;27.40;66.70;;;;;;4990910;28;20449;-90
2023/08/21 10:25:25;;;;;;;5.05;0.85;;;27.40;61.60;;;;;;4991853;28;20405;-93
2023/08/21 10:28:03;;;;;;;5.43;0.85;;;28.00;61.80;;;;;;4992061;28;20423;-92
2023/08/21 10:30:29;;;;;;;4.43;0.60;;;28.50;59.70;;;;;;4992704;28;20405;-91
2023/08/21 10:32:58;;;;;;;6.13;2.65;;;28.80;57.00;;;;;;4992523;28;20421;-92
2023/08/21 10:35:36;;;;;;;7.93;2.73;;;29.00;56.90;;;;;;4989844;28;20484;-92
2023/08/21 10:38:10;;;;;;;7.97;3.67;;;29.10;53.40;;;;;;4992042;28;20420;-87
2023/08/21 10:40:37;;;;;;;6.32;2.83;;;29.20;56.70;;;;;;4989585;28;20531;-93
2023/08/21 10:43:03;;;;;;;5.43;1.67;;;29.50;57.00;;;;;;4991354;28;20420;-91
2023/08/21 10:45:30;;;;;;;5.53;3.28;;;29.60;53.80;;;;;;4991968;28;20795;-93
2023/08/21 10:48:00;;;;;;;7.65;6.30;;;29.70;52.10;;;;;;4973715;28;20903;-92
2023/08/21 10:50:26;;;;;;;6.15;0.95;;;29.70;54.70;;;;;;4991481;28;20945;-92
2023/08/21 10:52:53;;;;;;;4.25;0.77;;;29.90;54.80;;;;;;4989120;28;20392;-88
2023/08/21 10:55:19;;;;;;;4.90;0.93;;;30.10;53.90;;;;;;4991796;28;20455;-91
2023/08/21 10:57:48;;;;;;;4.57;0.90;;;30.40;52.50;;;;;;4989957;28;20416;-91
2023/08/21 11:00:16;;;;;;;5.93;2.00;;;31.00;51.90;;;;;;5008747;28;20807;-87
2023/08/21 11:02:44;;;;;;;3.88;0.50;;;31.10;54.10;;;;;;4991632;28;20458;-93
2023/08/21 11:05:12;;;;;;;5.77;1.00;;;31.40;48.60;;;;;;4989393;28;20433;-91
2023/08/21 11:07:40;;;;;;;3.93;1.03;;;31.70;49.40;;;;;;4991273;28;20443;-93
2023/08/21 11:10:11;;;;;;;5.70;1.73;;;32.00;48.20;;;;;;4991620;28;20432;-93
2023/08/21 11:12:56;;;;;;;45.85;42.05;;;32.10;46.60;;;;;;4998850;28;20486;-93
2023/08/21 11:15:23;;;;;;;33.92;30.73;;;31.70;46.50;;;;;;4983944;28;20414;-92
2023/08/21 11:18:00;;;;;;;10.15;5.80;;;30.80;48.80;;;;;;4996852;28;20419;-93
2023/08/21 11:20:33;;;;;;;6.13;3.47;;;30.00;48.90;;;;;;4997233;28;20430;-91
2023/08/21 11:23:07;;;;;;;5.10;1.83;;;29.20;50.60;;;;;;4992336;28;20471;-89
2023/08/21 11:25:33;;;;;;;5.30;1.67;;;29.10;53.50;;;;;;4994235;28;20415;-92
2023/08/21 11:28:02;;;;;;;4.82;1.85;;;29.40;52.00;;;;;;4992089;28;20410;-93
2023/08/21 11:30:28;;;;;;;3.83;0.63;;;29.80;52.80;;;;;;4994684;28;20920;-89
2023/08/21 11:33:12;;;;;;;5.00;2.40;;;30.00;50.40;;;;;;5010088;28;20675;-95
2023/08/21 11:35:39;;;;;;;12.80;11.60;;;30.20;50.00;;;;;;4989687;28;20947;-91
2023/08/21 11:38:05;;;;;;;6.82;3.30;;;30.20;51.70;;;;;;4993899;28;20921;-93
2023/08/21 11:40:34;;;;;;;6.47;5.18;;;30.30;48.70;;;;;;4992666;28;20428;-91
2023/08/21 11:43:01;;;;;;;3.23;1.40;;;30.50;51.40;;;;;;4995261;28;20442;-94
2023/08/21 11:45:27;;;;;;;3.42;1.00;;;30.70;48.30;;;;;;4991971;28;20415;-91
2023/08/21 11:47:55;;;;;;;3.00;0.50;;;30.90;46.50;;;;;;4993796;28;20408;-91
2023/08/21 11:50:24;;;;;;;3.33;0.50;;;31.30;48.20;;;;;;4992799;28;20879;-93
2023/08/21 11:52:54;;;;;;;4.18;1.00;;;31.70;49.80;;;;;;4994142;28;20969;-89
2023/08/21 11:55:20;;;;;;;4.78;0.65;;;31.50;45.60;;;;;;5010266;28;20480;-91
2023/08/21 11:57:48;;;;;;;3.70;0.50;;;31.30;49.00;;;;;;4992025;28;20761;-89
2023/08/21 12:00:14;;;;;;;5.40;2.67;;;31.40;48.30;;;;;;4993864;28;20924;-92
2023/08/21 12:02:41;;;;;;;5.20;3.27;;;31.60;49.10;;;;;;4991572;28;20710;-93
2023/08/21 12:05:14;;;;;;;6.78;4.15;;;31.70;48.50;;;;;;4993856;28;20447;-92
2023/08/21 12:07:40;;;;;;;2.97;0.40;;;31.80;46.80;;;;;;4992547;28;20415;-90
2023/08/21 12:10:06;;;;;;;3.95;0.40;;;32.00;48.20;;;;;;4993131;28;20488;-91
2023/08/21 12:12:32;;;;;;;6.95;5.43;;;32.40;46.00;;;;;;4995651;28;20403;-94
2023/08/21 12:14:58;;;;;;;4.20;1.90;;;32.80;46.30;;;;;;4990576;28;20931;-94
2023/08/21 12:17:23;;;;;;;3.17;0.40;;;32.90;46.20;;;;;;4994056;28;20411;-93
2023/08/21 12:19:49;;;;;;;4.60;2.47;;;33.00;42.20;;;;;;4991669;28;20894;-90
2023/08/21 12:22:15;;;;;;;2.40;0.30;;;33.30;46.00;;;;;;4993689;28;20929;-91
2023/08/21 12:24:40;;;;;;;3.90;1.00;;;33.60;43.50;;;;;;4991339;28;20505;-88
2023/08/21 12:27:06;;;;;;;7.43;5.33;;;33.40;43.20;;;;;;5009234;28;20423;-88
2023/08/21 12:29:32;;;;;;;3.55;0.80;;;33.50;44.90;;;;;;4992291;28;20940;-91
2023/08/21 12:31:58;;;;;;;3.72;0.80;;;33.80;42.60;;;;;;4992657;28;20921;-89
2023/08/21 12:34:23;;;;;;;2.60;0.60;;;34.20;45.10;;;;;;5025582;28;20902;-89
2023/08/21 12:36:52;;;;;;;3.17;0.30;;;34.30;40.30;;;;;;4991895;28;20430;-91
2023/08/21 12:39:18;;;;;;;3.70;1.20;;;34.30;38.80;;;;;;4993675;28;20972;-93
2023/08/21 12:41:43;;;;;;;3.17;0.88;;;34.20;43.40;;;;;;4991149;28;20513;-89
2023/08/21 12:44:10;;;;;;;2.83;0.40;;;34.30;41.20;;;;;;4993240;28;20414;-89